sensor_id;sensor_type;location;lat;lon;timestamp;temperature;humidity
7461;DHT22;6757;52.258;12.840;2023-04-03T00:00:37;-0.50;99.90
7461;DHT22;6757;52.258;12.840;2023-04-03T00:03:04;-0.50;99.90
7461;DHT22;6757;52.258;12.840;2023-04-03T00:05:32;-0.50;99.90
7461;DHT22;6757;52.258;12.840;2023-04-03T00:07:59;-0.50;99.90
7461;DHT22;6757;52.258;12.840;2023-04-03T00:10:27;-0.60;99.90
7461;DHT22;6757;52.258;12.840;2023-04-03T00:12:54;-0.60;99.90
7461;DHT22;6757;52.258;12.840;2023-04-03T00:15:21;-0.60;99.90
7461;DHT22;6757;52.258;12.840;2023-04-03T00:17:48;-0.60;99.90
7461;DHT22;6757;52.258;12.840;2023-04-03T00:20:15;-0.60;99.90
7461;DHT22;6757;52.258;12.840;2023-04-03T00:22:43;-0.60;99.90
7461;DHT22;6757;52.258;12.840;2023-04-03T00:25:11;-0.60;99.90
7461;DHT22;6757;52.258;12.840;2023-04-03T00:27:39;-0.60;99.90
7461;DHT22;6757;52.258;12.840;2023-04-03T00:30:16;-0.60;99.90
7461;DHT22;6757;52.258;12.840;2023-04-03T00:32:43;-0.60;99.90
7461;DHT22;6757;52.258;12.840;2023-04-03T00:35:10;-0.60;99.90
7461;DHT22;6757;52.258;12.840;2023-04-03T00:37:42;-0.70;99.90
7461;DHT22;6757;52.258;12.840;2023-04-03T00:40:10;-0.70;99.90
7461;DHT22;6757;52.258;12.840;2023-04-03T00:42:40;-0.60;99.90
7461;DHT22;6757;52.258;12.840;2023-04-03T00:45:26;-0.70;99.90
7461;DHT22;6757;52.258;12.840;2023-04-03T00:47:57;-0.70;99.90
7461;DHT22;6757;52.258;12.840;2023-04-03T00:50:26;-0.70;99.90
7461;DHT22;6757;52.258;12.840;2023-04-03T00:52:56;-0.70;99.90
7461;DHT22;6757;52.258;12.840;2023-04-03T00:55:23;-0.80;99.90
7461;DHT22;6757;52.258;12.840;2023-04-03T00:57:51;-0.80;99.90
7461;DHT22;6757;52.258;12.840;2023-04-03T01:00:20;-0.80;99.90
7461;DHT22;6757;52.258;12.840;2023-04-03T01:02:47;-0.90;99.90
7461;DHT22;6757;52.258;12.840;2023-04-03T01:05:16;-0.90;99.90
7461;DHT22;6757;52.258;12.840;2023-04-03T01:07:45;-0.90;99.90
7461;DHT22;6757;52.258;12.840;2023-04-03T01:10:15;-0.90;99.90
7461;DHT22;6757;52.258;12.840;2023-04-03T01:12:44;-1.00;99.90
7461;DHT22;6757;52.258;12.840;2023-04-03T01:15:14;-1.00;99.90
7461;DHT22;6757;52.258;12.840;2023-04-03T01:17:44;-1.00;99.90
7461;DHT22;6757;52.258;12.840;2023-04-03T01:20:46;-1.00;99.90
7461;DHT22;6757;52.258;12.840;2023-04-03T01:23:42;-1.10;99.90
7461;DHT22;6757;52.258;12.840;2023-04-03T01:26:16;-1.10;99.90
7461;DHT22;6757;52.258;12.840;2023-04-03T01:28:43;-1.10;99.90
7461;DHT22;6757;52.258;12.840;2023-04-03T01:31:17;-1.10;99.90
7461;DHT22;6757;52.258;12.840;2023-04-03T01:33:48;-1.20;99.90
7461;DHT22;6757;52.258;12.840;2023-04-03T01:36:18;-1.20;99.90
7461;DHT22;6757;52.258;12.840;2023-04-03T01:38:47;-1.20;99.90
7461;DHT22;6757;52.258;12.840;2023-04-03T01:41:14;-1.30;99.90
7461;DHT22;6757;52.258;12.840;2023-04-03T01:43:41;-1.30;99.90
7461;DHT22;6757;52.258;12.840;2023-04-03T01:46:08;-1.40;99.90
7461;DHT22;6757;52.258;12.840;2023-04-03T01:48:35;-1.30;99.90
7461;DHT22;6757;52.258;12.840;2023-04-03T01:51:04;-1.40;99.90
7461;DHT22;6757;52.258;12.840;2023-04-03T01:53:31;-1.50;99.90
7461;DHT22;6757;52.258;12.840;2023-04-03T01:55:58;-1.50;99.90
7461;DHT22;6757;52.258;12.840;2023-04-03T01:58:25;-1.50;99.90
7461;DHT22;6757;52.258;12.840;2023-04-03T02:00:52;-1.60;99.90
7461;DHT22;6757;52.258;12.840;2023-04-03T02:03:19;-1.60;99.90
7461;DHT22;6757;52.258;12.840;2023-04-03T02:05:46;-1.60;99.90
7461;DHT22;6757;52.258;12.840;2023-04-03T02:08:14;-1.70;99.90
7461;DHT22;6757;52.258;12.840;2023-04-03T02:10:43;-1.70;99.90
7461;DHT22;6757;52.258;12.840;2023-04-03T02:13:10;-1.70;99.90
7461;DHT22;6757;52.258;12.840;2023-04-03T02:15:38;-1.80;99.90
7461;DHT22;6757;52.258;12.840;2023-04-03T02:18:04;-1.80;99.90
7461;DHT22;6757;52.258;12.840;2023-04-03T02:20:32;-1.50;99.90
7461;DHT22;6757;52.258;12.840;2023-04-03T02:22:59;-1.90;99.90
7461;DHT22;6757;52.258;12.840;2023-04-03T02:25:28;-1.90;99.90
7461;DHT22;6757;52.258;12.840;2023-04-03T02:27:55;-1.90;99.90
7461;DHT22;6757;52.258;12.840;2023-04-03T02:30:22;-2.00;99.90
7461;DHT22;6757;52.258;12.840;2023-04-03T02:32:49;-2.00;99.90
7461;DHT22;6757;52.258;12.840;2023-04-03T02:35:15;-2.00;99.90
7461;DHT22;6757;52.258;12.840;2023-04-03T02:37:43;-2.00;99.90
7461;DHT22;6757;52.258;12.840;2023-04-03T02:40:10;-2.10;99.90
7461;DHT22;6757;52.258;12.840;2023-04-03T02:42:39;-2.10;99.90
7461;DHT22;6757;52.258;12.840;2023-04-03T02:45:07;-2.10;99.90
7461;DHT22;6757;52.258;12.840;2023-04-03T02:47:34;-2.20;99.90
7461;DHT22;6757;52.258;12.840;2023-04-03T02:50:01;-2.20;99.90
7461;DHT22;6757;52.258;12.840;2023-04-03T02:52:28;-2.20;99.90
7461;DHT22;6757;52.258;12.840;2023-04-03T02:54:54;-2.20;99.90
7461;DHT22;6757;52.258;12.840;2023-04-03T02:57:21;-2.30;99.90
7461;DHT22;6757;52.258;12.840;2023-04-03T02:59:49;-2.30;99.90
7461;DHT22;6757;52.258;12.840;2023-04-03T03:02:16;-2.30;99.90
7461;DHT22;6757;52.258;12.840;2023-04-03T03:04:43;-2.30;99.90
7461;DHT22;6757;52.258;12.840;2023-04-03T03:07:10;-2.30;99.90
7461;DHT22;6757;52.258;12.840;2023-04-03T03:09:37;-2.40;99.90
7461;DHT22;6757;52.258;12.840;2023-04-03T03:12:05;-2.40;99.90
7461;DHT22;6757;52.258;12.840;2023-04-03T03:14:32;-2.40;99.90
7461;DHT22;6757;52.258;12.840;2023-04-03T03:17:00;-2.40;99.90
7461;DHT22;6757;52.258;12.840;2023-04-03T03:19:27;-2.40;99.90
7461;DHT22;6757;52.258;12.840;2023-04-03T03:21:54;-2.40;99.90
7461;DHT22;6757;52.258;12.840;2023-04-03T03:24:22;-2.40;99.90
7461;DHT22;6757;52.258;12.840;2023-04-03T03:26:49;-2.40;99.90
7461;DHT22;6757;52.258;12.840;2023-04-03T03:29:16;-2.50;99.90
7461;DHT22;6757;52.258;12.840;2023-04-03T03:31:43;-2.50;99.90
7461;DHT22;6757;52.258;12.840;2023-04-03T03:34:11;-2.50;99.90
7461;DHT22;6757;52.258;12.840;2023-04-03T03:36:38;-1.70;99.90
7461;DHT22;6757;52.258;12.840;2023-04-03T03:39:06;-2.50;99.90
7461;DHT22;6757;52.258;12.840;2023-04-03T03:41:33;-2.50;99.90
7461;DHT22;6757;52.258;12.840;2023-04-03T03:44:00;-2.50;99.90
7461;DHT22;6757;52.258;12.840;2023-04-03T03:46:27;-2.50;99.90
7461;DHT22;6757;52.258;12.840;2023-04-03T03:48:54;-2.50;99.90
7461;DHT22;6757;52.258;12.840;2023-04-03T03:51:22;-2.50;99.90
7461;DHT22;6757;52.258;12.840;2023-04-03T03:53:49;-2.50;99.90
7461;DHT22;6757;52.258;12.840;2023-04-03T03:56:16;-2.50;99.90
7461;DHT22;6757;52.258;12.840;2023-04-03T03:58:43;-2.50;99.90
7461;DHT22;6757;52.258;12.840;2023-04-03T04:01:10;-2.50;99.90
7461;DHT22;6757;52.258;12.840;2023-04-03T04:03:37;-2.60;99.90
7461;DHT22;6757;52.258;12.840;2023-04-03T04:06:05;-2.60;99.90
7461;DHT22;6757;52.258;12.840;2023-04-03T04:08:33;-2.60;99.90
7461;DHT22;6757;52.258;12.840;2023-04-03T04:11:00;-2.50;99.90
7461;DHT22;6757;52.258;12.840;2023-04-03T04:13:27;-2.60;99.90
7461;DHT22;6757;52.258;12.840;2023-04-03T04:15:54;-2.60;99.90
7461;DHT22;6757;52.258;12.840;2023-04-03T04:18:21;-2.60;99.90
7461;DHT22;6757;52.258;12.840;2023-04-03T04:20:49;-2.60;99.90
7461;DHT22;6757;52.258;12.840;2023-04-03T04:23:16;-2.60;99.90
7461;DHT22;6757;52.258;12.840;2023-04-03T04:25:45;-2.60;99.90
7461;DHT22;6757;52.258;12.840;2023-04-03T04:28:13;-2.50;99.90
7461;DHT22;6757;52.258;12.840;2023-04-03T04:30:40;-2.50;99.90
7461;DHT22;6757;52.258;12.840;2023-04-03T04:33:08;-2.50;99.90
7461;DHT22;6757;52.258;12.840;2023-04-03T04:35:35;-2.50;99.90
7461;DHT22;6757;52.258;12.840;2023-04-03T04:38:02;-2.50;99.90
7461;DHT22;6757;52.258;12.840;2023-04-03T04:40:30;-2.50;99.90
7461;DHT22;6757;52.258;12.840;2023-04-03T04:42:58;-2.50;99.90
7461;DHT22;6757;52.258;12.840;2023-04-03T04:45:25;-2.50;99.90
7461;DHT22;6757;52.258;12.840;2023-04-03T04:47:54;-2.50;99.90
7461;DHT22;6757;52.258;12.840;2023-04-03T04:50:22;-2.50;99.90
7461;DHT22;6757;52.258;12.840;2023-04-03T04:52:50;-2.50;99.90
7461;DHT22;6757;52.258;12.840;2023-04-03T04:55:17;-2.50;99.90
7461;DHT22;6757;52.258;12.840;2023-04-03T04:57:44;-2.40;99.90
7461;DHT22;6757;52.258;12.840;2023-04-03T05:00:13;-2.40;99.90
7461;DHT22;6757;52.258;12.840;2023-04-03T05:02:42;-2.40;99.90
7461;DHT22;6757;52.258;12.840;2023-04-03T05:05:09;-2.40;99.90
7461;DHT22;6757;52.258;12.840;2023-04-03T05:07:36;-2.30;99.90
7461;DHT22;6757;52.258;12.840;2023-04-03T05:10:03;-2.30;99.90
7461;DHT22;6757;52.258;12.840;2023-04-03T05:12:32;-2.30;99.90
7461;DHT22;6757;52.258;12.840;2023-04-03T05:15:00;-2.30;99.90
7461;DHT22;6757;52.258;12.840;2023-04-03T05:17:30;-2.20;99.90
7461;DHT22;6757;52.258;12.840;2023-04-03T05:19:57;-2.30;99.90
7461;DHT22;6757;52.258;12.840;2023-04-03T05:22:24;-2.30;99.90
7461;DHT22;6757;52.258;12.840;2023-04-03T05:28:29;-2.50;99.90
7461;DHT22;6757;52.258;12.840;2023-04-03T05:30:57;-2.20;99.90
7461;DHT22;6757;52.258;12.840;2023-04-03T05:33:26;-2.20;99.90
7461;DHT22;6757;52.258;12.840;2023-04-03T05:35:53;-2.20;99.90
7461;DHT22;6757;52.258;12.840;2023-04-03T05:38:21;-2.10;99.90
7461;DHT22;6757;52.258;12.840;2023-04-03T05:40:48;-2.10;99.90
7461;DHT22;6757;52.258;12.840;2023-04-03T05:43:15;-2.10;99.90
7461;DHT22;6757;52.258;12.840;2023-04-03T05:45:43;-2.00;99.90
7461;DHT22;6757;52.258;12.840;2023-04-03T05:48:10;-2.00;99.90
7461;DHT22;6757;52.258;12.840;2023-04-03T05:50:39;-2.00;99.90
7461;DHT22;6757;52.258;12.840;2023-04-03T05:53:14;-1.90;99.90
7461;DHT22;6757;52.258;12.840;2023-04-03T05:55:43;-1.90;99.90
7461;DHT22;6757;52.258;12.840;2023-04-03T05:58:10;-1.80;99.90
7461;DHT22;6757;52.258;12.840;2023-04-03T06:00:37;-1.80;99.90
7461;DHT22;6757;52.258;12.840;2023-04-03T06:03:04;-1.70;99.90
7461;DHT22;6757;52.258;12.840;2023-04-03T06:05:31;-1.70;99.90
7461;DHT22;6757;52.258;12.840;2023-04-03T06:08:00;-1.60;99.90
7461;DHT22;6757;52.258;12.840;2023-04-03T06:13:46;-1.50;99.90
7461;DHT22;6757;52.258;12.840;2023-04-03T06:16:15;-1.40;99.90
7461;DHT22;6757;52.258;12.840;2023-04-03T06:18:43;-1.40;99.90
7461;DHT22;6757;52.258;12.840;2023-04-03T06:21:10;-1.30;99.90
7461;DHT22;6757;52.258;12.840;2023-04-03T06:23:38;-1.20;99.90
7461;DHT22;6757;52.258;12.840;2023-04-03T06:26:06;-1.10;99.90
7461;DHT22;6757;52.258;12.840;2023-04-03T06:28:32;-1.10;99.90
7461;DHT22;6757;52.258;12.840;2023-04-03T06:30:59;-1.00;99.90
7461;DHT22;6757;52.258;12.840;2023-04-03T06:33:26;-0.90;99.90
7461;DHT22;6757;52.258;12.840;2023-04-03T06:35:57;-0.80;99.90
7461;DHT22;6757;52.258;12.840;2023-04-03T06:38:25;-0.70;99.90
7461;DHT22;6757;52.258;12.840;2023-04-03T06:40:53;-0.60;99.90
7461;DHT22;6757;52.258;12.840;2023-04-03T06:43:21;-0.40;99.90
7461;DHT22;6757;52.258;12.840;2023-04-03T06:45:48;-0.30;99.90
7461;DHT22;6757;52.258;12.840;2023-04-03T06:48:15;-0.10;99.90
7461;DHT22;6757;52.258;12.840;2023-04-03T06:50:42;0.20;99.90
7461;DHT22;6757;52.258;12.840;2023-04-03T06:53:10;0.40;99.90
7461;DHT22;6757;52.258;12.840;2023-04-03T06:55:38;0.60;99.90
7461;DHT22;6757;52.258;12.840;2023-04-03T06:58:06;0.70;99.90
7461;DHT22;6757;52.258;12.840;2023-04-03T07:00:33;0.90;99.90
7461;DHT22;6757;52.258;12.840;2023-04-03T07:03:00;1.00;99.90
7461;DHT22;6757;52.258;12.840;2023-04-03T07:05:28;1.10;99.90
7461;DHT22;6757;52.258;12.840;2023-04-03T07:07:55;1.20;99.90
7461;DHT22;6757;52.258;12.840;2023-04-03T07:10:23;1.40;99.90
7461;DHT22;6757;52.258;12.840;2023-04-03T07:12:50;1.40;99.90
7461;DHT22;6757;52.258;12.840;2023-04-03T07:15:19;1.50;99.90
7461;DHT22;6757;52.258;12.840;2023-04-03T07:17:46;1.60;99.90
7461;DHT22;6757;52.258;12.840;2023-04-03T07:20:13;1.60;99.90
7461;DHT22;6757;52.258;12.840;2023-04-03T07:22:40;1.70;99.90
7461;DHT22;6757;52.258;12.840;2023-04-03T07:25:07;1.80;99.90
7461;DHT22;6757;52.258;12.840;2023-04-03T07:27:36;1.90;99.90
7461;DHT22;6757;52.258;12.840;2023-04-03T07:30:03;2.00;99.90
7461;DHT22;6757;52.258;12.840;2023-04-03T07:32:33;2.00;99.90
7461;DHT22;6757;52.258;12.840;2023-04-03T07:35:00;2.10;99.90
7461;DHT22;6757;52.258;12.840;2023-04-03T07:37:27;2.10;99.90
7461;DHT22;6757;52.258;12.840;2023-04-03T07:39:54;2.20;99.90
7461;DHT22;6757;52.258;12.840;2023-04-03T07:42:22;2.20;99.90
7461;DHT22;6757;52.258;12.840;2023-04-03T07:44:49;2.30;99.90
7461;DHT22;6757;52.258;12.840;2023-04-03T07:47:16;2.30;99.90
7461;DHT22;6757;52.258;12.840;2023-04-03T07:49:45;2.40;99.90
7461;DHT22;6757;52.258;12.840;2023-04-03T07:52:12;2.40;99.90
7461;DHT22;6757;52.258;12.840;2023-04-03T07:54:40;2.50;99.90
7461;DHT22;6757;52.258;12.840;2023-04-03T07:57:07;2.50;99.90
7461;DHT22;6757;52.258;12.840;2023-04-03T07:59:34;2.50;99.90
7461;DHT22;6757;52.258;12.840;2023-04-03T08:02:00;2.50;99.90
7461;DHT22;6757;52.258;12.840;2023-04-03T08:04:30;2.60;99.90
7461;DHT22;6757;52.258;12.840;2023-04-03T08:06:58;2.60;99.90
7461;DHT22;6757;52.258;12.840;2023-04-03T08:09:25;2.70;99.90
7461;DHT22;6757;52.258;12.840;2023-04-03T08:11:52;2.80;99.90
7461;DHT22;6757;52.258;12.840;2023-04-03T08:14:20;2.90;99.90
7461;DHT22;6757;52.258;12.840;2023-04-03T08:16:48;3.00;99.90
7461;DHT22;6757;52.258;12.840;2023-04-03T08:19:16;3.10;99.90
7461;DHT22;6757;52.258;12.840;2023-04-03T08:21:43;3.10;99.90
7461;DHT22;6757;52.258;12.840;2023-04-03T08:24:13;3.20;99.90
7461;DHT22;6757;52.258;12.840;2023-04-03T08:26:40;3.20;99.90
7461;DHT22;6757;52.258;12.840;2023-04-03T08:29:07;3.20;99.90
7461;DHT22;6757;52.258;12.840;2023-04-03T08:31:34;3.10;99.90
7461;DHT22;6757;52.258;12.840;2023-04-03T08:34:01;3.20;99.90
7461;DHT22;6757;52.258;12.840;2023-04-03T08:36:29;3.10;99.90
7461;DHT22;6757;52.258;12.840;2023-04-03T08:38:56;3.10;99.90
7461;DHT22;6757;52.258;12.840;2023-04-03T08:41:29;3.10;99.90
7461;DHT22;6757;52.258;12.840;2023-04-03T08:44:13;3.10;99.90
7461;DHT22;6757;52.258;12.840;2023-04-03T08:47:00;3.10;99.90
7461;DHT22;6757;52.258;12.840;2023-04-03T08:49:33;3.20;99.90
7461;DHT22;6757;52.258;12.840;2023-04-03T08:52:05;3.20;99.90
7461;DHT22;6757;52.258;12.840;2023-04-03T08:54:44;4.20;99.90
7461;DHT22;6757;52.258;12.840;2023-04-03T08:57:26;3.30;99.90
7461;DHT22;6757;52.258;12.840;2023-04-03T08:59:56;3.30;99.90
7461;DHT22;6757;52.258;12.840;2023-04-03T09:02:27;3.30;99.90
7461;DHT22;6757;52.258;12.840;2023-04-03T09:04:57;3.30;99.90
7461;DHT22;6757;52.258;12.840;2023-04-03T09:07:33;3.30;99.90
7461;DHT22;6757;52.258;12.840;2023-04-03T09:10:03;3.30;99.90
7461;DHT22;6757;52.258;12.840;2023-04-03T09:12:35;3.30;99.90
7461;DHT22;6757;52.258;12.840;2023-04-03T09:15:13;3.40;99.90
7461;DHT22;6757;52.258;12.840;2023-04-03T09:17:53;3.50;99.90
7461;DHT22;6757;52.258;12.840;2023-04-03T09:20:36;3.60;99.90
7461;DHT22;6757;52.258;12.840;2023-04-03T09:23:19;3.70;99.90
7461;DHT22;6757;52.258;12.840;2023-04-03T09:25:51;3.90;99.90
7461;DHT22;6757;52.258;12.840;2023-04-03T09:28:22;4.10;99.90
7461;DHT22;6757;52.258;12.840;2023-04-03T09:30:49;4.40;99.90
7461;DHT22;6757;52.258;12.840;2023-04-03T09:33:16;4.60;99.90
7461;DHT22;6757;52.258;12.840;2023-04-03T09:35:44;4.70;99.90
7461;DHT22;6757;52.258;12.840;2023-04-03T09:38:19;4.80;99.90
7461;DHT22;6757;52.258;12.840;2023-04-03T09:40:49;4.70;99.90
7461;DHT22;6757;52.258;12.840;2023-04-03T09:43:24;4.70;99.90
7461;DHT22;6757;52.258;12.840;2023-04-03T09:45:53;4.60;99.90
7461;DHT22;6757;52.258;12.840;2023-04-03T09:48:22;4.50;99.90
7461;DHT22;6757;52.258;12.840;2023-04-03T09:50:55;4.50;99.90
7461;DHT22;6757;52.258;12.840;2023-04-03T09:53:33;4.50;99.90
7461;DHT22;6757;52.258;12.840;2023-04-03T09:56:04;4.40;99.90
7461;DHT22;6757;52.258;12.840;2023-04-03T09:58:48;4.40;99.90
7461;DHT22;6757;52.258;12.840;2023-04-03T10:01:27;4.40;99.90
7461;DHT22;6757;52.258;12.840;2023-04-03T10:04:09;4.40;99.90
7461;DHT22;6757;52.258;12.840;2023-04-03T10:06:39;4.40;99.90
7461;DHT22;6757;52.258;12.840;2023-04-03T10:09:18;4.40;99.90
7461;DHT22;6757;52.258;12.840;2023-04-03T10:12:02;4.50;99.90
7461;DHT22;6757;52.258;12.840;2023-04-03T10:14:33;4.50;99.90
7461;DHT22;6757;52.258;12.840;2023-04-03T10:17:15;5.30;99.90
7461;DHT22;6757;52.258;12.840;2023-04-03T10:19:46;4.70;99.90
7461;DHT22;6757;52.258;12.840;2023-04-03T10:22:33;4.80;99.90
7461;DHT22;6757;52.258;12.840;2023-04-03T10:25:12;4.90;99.90
7461;DHT22;6757;52.258;12.840;2023-04-03T10:27:49;5.00;99.90
7461;DHT22;6757;52.258;12.840;2023-04-03T10:30:31;5.10;99.90
7461;DHT22;6757;52.258;12.840;2023-04-03T10:33:20;5.20;99.90
7461;DHT22;6757;52.258;12.840;2023-04-03T10:36:12;5.30;99.90
7461;DHT22;6757;52.258;12.840;2023-04-03T10:38:53;5.40;99.90
7461;DHT22;6757;52.258;12.840;2023-04-03T10:41:28;5.40;99.90
7461;DHT22;6757;52.258;12.840;2023-04-03T10:44:08;5.50;99.90
7461;DHT22;6757;52.258;12.840;2023-04-03T10:46:45;5.60;99.90
7461;DHT22;6757;52.258;12.840;2023-04-03T10:49:25;5.70;99.90
7461;DHT22;6757;52.258;12.840;2023-04-03T10:52:05;5.80;99.90
7461;DHT22;6757;52.258;12.840;2023-04-03T10:54:37;5.80;99.90
7461;DHT22;6757;52.258;12.840;2023-04-03T10:57:08;5.80;99.90
7461;DHT22;6757;52.258;12.840;2023-04-03T10:59:40;5.90;99.90
7461;DHT22;6757;52.258;12.840;2023-04-03T11:02:16;5.90;99.90
7461;DHT22;6757;52.258;12.840;2023-04-03T11:04:51;5.90;99.90
7461;DHT22;6757;52.258;12.840;2023-04-03T11:07:21;5.90;99.90
7461;DHT22;6757;52.258;12.840;2023-04-03T11:09:52;6.00;99.90
7461;DHT22;6757;52.258;12.840;2023-04-03T11:12:25;5.90;99.90
7461;DHT22;6757;52.258;12.840;2023-04-03T11:14:56;5.90;99.90
7461;DHT22;6757;52.258;12.840;2023-04-03T11:17:30;6.00;99.90
7461;DHT22;6757;52.258;12.840;2023-04-03T11:20:06;6.00;99.90
7461;DHT22;6757;52.258;12.840;2023-04-03T11:22:41;6.10;99.90
7461;DHT22;6757;52.258;12.840;2023-04-03T11:25:19;6.20;99.90
7461;DHT22;6757;52.258;12.840;2023-04-03T11:27:51;6.20;99.90
7461;DHT22;6757;52.258;12.840;2023-04-03T11:30:23;6.20;99.90
7461;DHT22;6757;52.258;12.840;2023-04-03T11:33:03;6.20;99.90
7461;DHT22;6757;52.258;12.840;2023-04-03T11:35:36;6.20;99.90
7461;DHT22;6757;52.258;12.840;2023-04-03T11:38:05;6.20;99.90
7461;DHT22;6757;52.258;12.840;2023-04-03T11:40:33;6.30;99.90
7461;DHT22;6757;52.258;12.840;2023-04-03T11:43:07;6.40;99.90
7461;DHT22;6757;52.258;12.840;2023-04-03T11:45:53;6.50;99.90
7461;DHT22;6757;52.258;12.840;2023-04-03T11:48:44;6.50;99.90
7461;DHT22;6757;52.258;12.840;2023-04-03T11:51:40;6.60;99.90
7461;DHT22;6757;52.258;12.840;2023-04-03T11:54:45;6.60;99.80
7461;DHT22;6757;52.258;12.840;2023-04-03T12:00:47;6.80;99.50
7461;DHT22;6757;52.258;12.840;2023-04-03T12:06:59;7.00;98.90
7461;DHT22;6757;52.258;12.840;2023-04-03T12:12:37;7.00;97.90
7461;DHT22;6757;52.258;12.840;2023-04-03T12:15:41;7.10;97.60
7461;DHT22;6757;52.258;12.840;2023-04-03T12:18:40;7.10;97.40
7461;DHT22;6757;52.258;12.840;2023-04-03T12:21:11;7.10;97.40
7461;DHT22;6757;52.258;12.840;2023-04-03T12:24:04;7.20;97.40
7461;DHT22;6757;52.258;12.840;2023-04-03T12:26:41;7.40;97.30
7461;DHT22;6757;52.258;12.840;2023-04-03T12:29:15;7.40;96.40
7461;DHT22;6757;52.258;12.840;2023-04-03T12:31:52;7.40;96.30
7461;DHT22;6757;52.258;12.840;2023-04-03T12:34:44;7.30;95.90
7461;DHT22;6757;52.258;12.840;2023-04-03T12:37:46;7.30;96.00
7461;DHT22;6757;52.258;12.840;2023-04-03T12:40:26;7.30;96.20
7461;DHT22;6757;52.258;12.840;2023-04-03T12:43:25;7.30;96.00
7461;DHT22;6757;52.258;12.840;2023-04-03T12:46:02;7.20;95.80
7461;DHT22;6757;52.258;12.840;2023-04-03T12:48:37;7.10;95.50
7461;DHT22;6757;52.258;12.840;2023-04-03T12:51:05;7.00;95.20
7461;DHT22;6757;52.258;12.840;2023-04-03T12:53:35;7.00;95.30
7461;DHT22;6757;52.258;12.840;2023-04-03T12:56:21;7.00;95.40
7461;DHT22;6757;52.258;12.840;2023-04-03T12:58:50;7.00;95.50
7461;DHT22;6757;52.258;12.840;2023-04-03T13:01:21;6.90;95.40
7461;DHT22;6757;52.258;12.840;2023-04-03T13:03:52;6.90;95.30
7461;DHT22;6757;52.258;12.840;2023-04-03T13:06:22;6.80;95.00
7461;DHT22;6757;52.258;12.840;2023-04-03T13:08:54;6.80;94.80
7461;DHT22;6757;52.258;12.840;2023-04-03T13:11:25;6.70;94.70
7461;DHT22;6757;52.258;12.840;2023-04-03T13:13:57;6.70;94.60
7461;DHT22;6757;52.258;12.840;2023-04-03T13:16:26;6.60;94.70
7461;DHT22;6757;52.258;12.840;2023-04-03T13:18:54;6.60;94.60
7461;DHT22;6757;52.258;12.840;2023-04-03T13:21:24;6.60;94.70
7461;DHT22;6757;52.258;12.840;2023-04-03T13:23:55;6.60;94.70
7461;DHT22;6757;52.258;12.840;2023-04-03T13:26:24;6.70;94.80
7461;DHT22;6757;52.258;12.840;2023-04-03T13:28:54;6.70;94.80
7461;DHT22;6757;52.258;12.840;2023-04-03T13:31:26;6.80;94.90
7461;DHT22;6757;52.258;12.840;2023-04-03T13:33:57;6.80;94.90
7461;DHT22;6757;52.258;12.840;2023-04-03T13:36:34;6.80;94.70
7461;DHT22;6757;52.258;12.840;2023-04-03T13:39:06;6.80;94.70
7461;DHT22;6757;52.258;12.840;2023-04-03T13:41:46;6.80;94.90
7461;DHT22;6757;52.258;12.840;2023-04-03T13:44:28;6.80;95.00
7461;DHT22;6757;52.258;12.840;2023-04-03T13:46:58;6.70;95.00
7461;DHT22;6757;52.258;12.840;2023-04-03T13:49:32;6.70;94.80
7461;DHT22;6757;52.258;12.840;2023-04-03T13:52:20;6.60;94.50
7461;DHT22;6757;52.258;12.840;2023-04-03T13:54:55;6.60;94.40
7461;DHT22;6757;52.258;12.840;2023-04-03T13:57:23;6.60;94.40
7461;DHT22;6757;52.258;12.840;2023-04-03T13:59:51;6.60;94.20
7461;DHT22;6757;52.258;12.840;2023-04-03T14:02:21;6.50;93.80
7461;DHT22;6757;52.258;12.840;2023-04-03T14:04:54;6.50;93.80
7461;DHT22;6757;52.258;12.840;2023-04-03T14:07:26;6.50;93.80
7461;DHT22;6757;52.258;12.840;2023-04-03T14:09:54;6.50;93.70
7461;DHT22;6757;52.258;12.840;2023-04-03T14:12:26;6.40;93.40
7461;DHT22;6757;52.258;12.840;2023-04-03T14:14:54;6.30;93.40
7461;DHT22;6757;52.258;12.840;2023-04-03T14:17:24;6.30;93.50
7461;DHT22;6757;52.258;12.840;2023-04-03T14:19:55;6.20;93.40
7461;DHT22;6757;52.258;12.840;2023-04-03T14:22:25;6.10;93.40
7461;DHT22;6757;52.258;12.840;2023-04-03T14:24:55;6.10;93.50
7461;DHT22;6757;52.258;12.840;2023-04-03T14:27:24;6.10;93.70
7461;DHT22;6757;52.258;12.840;2023-04-03T14:29:54;6.20;94.00
7461;DHT22;6757;52.258;12.840;2023-04-03T14:32:24;6.20;94.20
7461;DHT22;6757;52.258;12.840;2023-04-03T14:34:52;6.20;94.30
7461;DHT22;6757;52.258;12.840;2023-04-03T14:37:22;6.20;94.70
7461;DHT22;6757;52.258;12.840;2023-04-03T14:39:52;6.30;94.70
7461;DHT22;6757;52.258;12.840;2023-04-03T14:42:24;6.30;94.50
7461;DHT22;6757;52.258;12.840;2023-04-03T14:44:55;6.30;94.40
7461;DHT22;6757;52.258;12.840;2023-04-03T14:47:25;6.20;94.20
7461;DHT22;6757;52.258;12.840;2023-04-03T14:49:53;6.20;94.20
7461;DHT22;6757;52.258;12.840;2023-04-03T14:52:22;6.10;93.90
7461;DHT22;6757;52.258;12.840;2023-04-03T14:54:51;6.10;93.80
7461;DHT22;6757;52.258;12.840;2023-04-03T14:57:22;6.10;94.90
7461;DHT22;6757;52.258;12.840;2023-04-03T14:59:51;6.20;94.80
7461;DHT22;6757;52.258;12.840;2023-04-03T15:02:29;6.30;94.60
7461;DHT22;6757;52.258;12.840;2023-04-03T15:04:58;6.20;94.30
7461;DHT22;6757;52.258;12.840;2023-04-03T15:07:31;6.20;94.20
7461;DHT22;6757;52.258;12.840;2023-04-03T15:10:03;6.10;94.60
7461;DHT22;6757;52.258;12.840;2023-04-03T15:12:38;6.20;94.80
7461;DHT22;6757;52.258;12.840;2023-04-03T15:15:07;6.20;94.60
7461;DHT22;6757;52.258;12.840;2023-04-03T15:17:35;6.10;94.50
7461;DHT22;6757;52.258;12.840;2023-04-03T15:20:05;6.10;94.40
7461;DHT22;6757;52.258;12.840;2023-04-03T15:22:38;6.00;94.20
7461;DHT22;6757;52.258;12.840;2023-04-03T15:25:05;5.90;94.20
7461;DHT22;6757;52.258;12.840;2023-04-03T15:27:33;5.80;94.30
7461;DHT22;6757;52.258;12.840;2023-04-03T15:30:02;5.70;94.40
7461;DHT22;6757;52.258;12.840;2023-04-03T15:32:30;5.60;94.50
7461;DHT22;6757;52.258;12.840;2023-04-03T15:34:57;5.60;94.60
7461;DHT22;6757;52.258;12.840;2023-04-03T15:37:24;5.50;94.70
7461;DHT22;6757;52.258;12.840;2023-04-03T15:39:51;5.40;94.80
7461;DHT22;6757;52.258;12.840;2023-04-03T15:42:18;5.40;95.00
7461;DHT22;6757;52.258;12.840;2023-04-03T15:44:45;5.30;95.20
7461;DHT22;6757;52.258;12.840;2023-04-03T15:47:13;5.30;95.30
7461;DHT22;6757;52.258;12.840;2023-04-03T15:49:41;5.20;95.20
7461;DHT22;6757;52.258;12.840;2023-04-03T15:52:09;5.10;95.30
7461;DHT22;6757;52.258;12.840;2023-04-03T15:54:36;5.10;95.50
7461;DHT22;6757;52.258;12.840;2023-04-03T15:57:03;5.10;95.70
7461;DHT22;6757;52.258;12.840;2023-04-03T15:59:30;5.10;95.90
7461;DHT22;6757;52.258;12.840;2023-04-03T16:01:59;5.00;96.20
7461;DHT22;6757;52.258;12.840;2023-04-03T16:04:28;5.10;96.60
7461;DHT22;6757;52.258;12.840;2023-04-03T16:06:55;5.10;96.60
7461;DHT22;6757;52.258;12.840;2023-04-03T16:09:22;5.00;96.60
7461;DHT22;6757;52.258;12.840;2023-04-03T16:11:49;5.00;96.90
7461;DHT22;6757;52.258;12.840;2023-04-03T16:14:16;5.10;97.60
7461;DHT22;6757;52.258;12.840;2023-04-03T16:16:43;5.10;98.40
7461;DHT22;6757;52.258;12.840;2023-04-03T16:19:10;5.30;98.20
7461;DHT22;6757;52.258;12.840;2023-04-03T16:21:39;5.30;98.10
7461;DHT22;6757;52.258;12.840;2023-04-03T16:24:06;5.40;97.70
7461;DHT22;6757;52.258;12.840;2023-04-03T16:26:33;5.40;97.40
7461;DHT22;6757;52.258;12.840;2023-04-03T16:29:00;5.30;97.40
7461;DHT22;6757;52.258;12.840;2023-04-03T16:31:27;5.30;97.40
7461;DHT22;6757;52.258;12.840;2023-04-03T16:33:55;5.20;97.40